Forside
METAR-TAF:

METAR-TAF

Lufthavne :

Nassau, Bahamas

Breddekreds: 25-03N, længdekreds: 077-28W, højde: 3 m

Aktuelle vejr

Denne rapport blev lavet for 21 minutter siden, kl. 23:00 UTC
Vind 9 kt fra syd
Temperatur 30°C
Fugtighed 66%
Tryk 1019 hPa
Sigt 10 km eller mere
Nogle få skyer i en højde af 2000 ft, Cumulonimbus.
Spredte skyer i en højde af 3000 ft

METAR: MYNN 172300Z 17009KT 9999 FEW020CB SCT030 30/23 A3009 RMK CB/W

Tid: 19:21 (23:21 UTC)

Vejrudsigter

Denne rapport blev lavet for 6 timer og 51 minutter siden, kl. 16:30 UTC
Foreløbig gælder fra 17 på 18 UTC til 18 på 18 UTC
Vind 12 kt fra sydsydøst
Sigt 10 km eller mere
Nogle få skyer i en højde af 1800 ft, Cumulonimbus.
Spredte skyer i en højde af 2000 ft
byger i nærheden
Fra 18 på 0500 UTC
Vind 2 kt fra varierende retninger
Sigt 10 km eller mere
Nogle få skyer i en højde af 2000 ft

TAF: MYNN 171630Z 1718/1818 15012KT 9999 VCSH FEW018CB SCT020 FM180500 VRB02KT 9999 FEW020

Vejrobservationer og prognoser fra mere end 4000 lufthavne (METAR og TAF).

De gule og røde prikker repræsenterer de meteorologiske stationer.

Flyt musen over at se navnet på stationen.

Så klik over at se vejr observationer og prognoser.

At skifte det kort: Klik på de grønne knapper med et sort kors for at zoome ind; på den grønne knap med en bindestreg for at zoome ud; eller på de grønne pile for tilstødende kort.


METAR-TAF: